Time;durP1;ratioP1;P1;durP2;ratioP2;P2;SDS_P1;SDS_P2;PMS_P1;PMS_P2;Temp;Humidity;BMP_temperature;BMP_pressure;BME280_temperature;BME280_humidity;BME280_pressure;Samples;Min_cycle;Max_cycle;Signal;HPM_P1;HPM_P2
2021/12/20 00:01:56;;;;;;;10.70;8.00;;;;;;;2.20;100.00;98655.31;5037291;28;20595;-71
2021/12/20 00:04:24;;;;;;;9.77;6.90;;;;;;;2.14;100.00;98666.16;5032985;28;20593;-71
2021/12/20 00:06:53;;;;;;;8.57;7.30;;;;;;;2.08;100.00;98671.72;5015244;28;20265;-73
2021/12/20 00:09:21;;;;;;;10.77;7.10;;;;;;;2.05;100.00;98661.47;5034252;28;20364;-71
2021/12/20 00:11:50;;;;;;;10.87;8.27;;;;;;;2.06;100.00;98655.28;5035707;28;20457;-72
2021/12/20 00:14:18;;;;;;;13.43;9.07;;;;;;;2.08;100.00;98653.41;5034269;28;20561;-71
2021/12/20 00:16:46;;;;;;;8.10;7.23;;;;;;;2.07;100.00;98657.81;5033817;28;20409;-72
2021/12/20 00:19:14;;;;;;;10.60;7.83;;;;;;;2.10;100.00;98649.78;5030785;28;20687;-71
2021/12/20 00:21:42;;;;;;;7.23;6.10;;;;;;;2.17;100.00;98645.03;5007898;28;20219;-69
2021/12/20 00:24:11;;;;;;;9.93;7.37;;;;;;;2.10;100.00;98634.09;5025492;28;20758;-72
2021/12/20 00:26:39;;;;;;;8.50;6.80;;;;;;;2.11;100.00;98640.19;5034935;28;20210;-71
2021/12/20 00:29:07;;;;;;;9.07;7.43;;;;;;;2.13;100.00;98641.75;5037100;28;20733;-69
2021/12/20 00:31:35;;;;;;;8.70;6.60;;;;;;;2.19;100.00;98642.31;5038945;28;20261;-71
2021/12/20 00:34:03;;;;;;;10.57;7.07;;;;;;;2.16;100.00;98645.97;5035955;28;20325;-71
2021/12/20 00:36:31;;;;;;;8.83;5.97;;;;;;;2.18;100.00;98649.31;5023672;28;20384;-70
2021/12/20 00:41:46;;;;;;;6.33;5.70;;;;;;;2.20;100.00;98647.47;5032381;28;20208;-71
2021/12/20 00:44:14;;;;;;;7.67;5.97;;;;;;;2.15;100.00;98642.50;5039307;28;20571;-73
2021/12/20 00:46:53;;;;;;;6.47;5.77;;;;;;;2.18;100.00;98651.94;5033488;28;20215;-72
2021/12/20 00:49:21;;;;;;;6.53;5.83;;;;;;;2.18;100.00;98641.47;5036784;28;20279;-72
2021/12/20 00:51:49;;;;;;;7.10;5.90;;;;;;;2.22;100.00;98644.72;5002430;28;21798;-70
2021/12/20 00:54:17;;;;;;;7.57;5.30;;;;;;;2.19;100.00;98650.16;5041175;28;20227;-72
2021/12/20 00:56:48;;;;;;;6.60;5.37;;;;;;;2.23;100.00;98643.78;5030100;28;20306;-69
2021/12/20 00:59:17;;;;;;;7.63;6.20;;;;;;;2.22;100.00;98642.97;5040709;28;20195;-70
2021/12/20 01:01:44;;;;;;;7.27;5.77;;;;;;;2.22;100.00;98644.72;5029224;28;20306;-70
2021/12/20 01:04:13;;;;;;;7.30;5.30;;;;;;;2.26;100.00;98652.31;5035838;28;20254;-71
2021/12/20 01:06:41;;;;;;;6.47;5.50;;;;;;;2.26;100.00;98659.28;5033773;28;20269;-70
2021/12/20 01:09:09;;;;;;;6.20;4.87;;;;;;;2.23;100.00;98660.34;5011103;28;20223;-71
2021/12/20 01:11:40;;;;;;;7.67;5.27;;;;;;;2.25;100.00;98655.00;5035663;28;20447;-72
2021/12/20 01:14:11;;;;;;;5.37;4.87;;;;;;;2.30;100.00;98660.81;5036823;28;20224;-71
2021/12/20 01:16:39;;;;;;;6.80;5.37;;;;;;;2.24;100.00;98659.41;5038619;28;20208;-72
2021/12/20 01:19:07;;;;;;;8.00;5.40;;;;;;;2.28;100.00;98666.13;5039796;28;20258;-70
2021/12/20 01:21:35;;;;;;;8.40;5.80;;;;;;;2.27;100.00;98660.97;5045114;28;20619;-70
2021/12/20 01:24:03;;;;;;;5.83;5.03;;;;;;;2.23;100.00;98656.88;5003834;28;20749;-70
2021/12/20 01:26:31;;;;;;;7.13;5.67;;;;;;;2.33;100.00;98657.16;5043573;28;20207;-70
2021/12/20 01:28:59;;;;;;;6.63;6.00;;;;;;;2.23;100.00;98660.34;5043414;28;20202;-71
2021/12/20 01:31:29;;;;;;;6.17;5.37;;;;;;;2.31;100.00;98660.69;5035690;28;20210;-71
2021/12/20 01:33:57;;;;;;;6.77;6.00;;;;;;;2.28;100.00;98658.28;5034171;28;20231;-71
2021/12/20 01:36:25;;;;;;;7.27;5.93;;;;;;;2.23;100.00;98652.50;5037904;28;20597;-73
2021/12/20 01:38:53;;;;;;;5.53;4.87;;;;;;;2.24;100.00;98659.41;5002039;28;22707;-73
2021/12/20 01:41:21;;;;;;;6.30;5.70;;;;;;;2.23;100.00;98668.19;5035193;28;20778;-75
2021/12/20 01:43:49;;;;;;;6.83;5.10;;;;;;;2.25;100.00;98666.31;5041401;28;20420;-74
2021/12/20 01:46:17;;;;;;;5.90;5.13;;;;;;;2.27;100.00;98664.44;5035231;28;20196;-75
2021/12/20 01:48:47;;;;;;;5.27;4.63;;;;;;;2.30;100.00;98659.03;5031437;28;20212;-72
2021/12/20 01:51:32;;;;;;;7.33;5.30;;;;;;;2.35;100.00;98657.88;5041125;28;20208;-73
2021/12/20 01:54:00;;;;;;;7.33;5.53;;;;;;;2.27;100.00;98664.44;5033945;28;20455;-73
2021/12/20 01:56:30;;;;;;;5.77;5.17;;;;;;;2.24;100.00;98667.25;5011439;28;20230;-73
2021/12/20 01:59:02;;;;;;;6.50;5.80;;;;;;;2.28;100.00;98671.34;5041569;28;20280;-74
2021/12/20 02:01:30;;;;;;;8.57;5.33;;;;;;;2.38;100.00;98668.16;5035302;28;20235;-70
2021/12/20 02:04:00;;;;;;;7.13;5.53;;;;;;;2.38;100.00;98676.88;5030697;28;20531;-71
2021/12/20 02:06:35;;;;;;;9.13;5.47;;;;;;;2.26;100.00;98673.22;5036854;28;20208;-71
2021/12/20 02:09:07;;;;;;;6.37;4.80;;;;;;;2.31;100.00;98670.34;5033533;28;20450;-71
2021/12/20 02:11:35;;;;;;;6.30;5.37;;;;;;;2.33;100.00;98678.94;5004514;28;20219;-70
2021/12/20 02:14:03;;;;;;;5.67;4.63;;;;;;;2.40;100.00;98675.00;5040580;28;20404;-70
2021/12/20 02:16:31;;;;;;;9.37;5.73;;;;;;;2.37;100.00;98671.72;5034281;28;20220;-71
2021/12/20 02:19:04;;;;;;;7.13;5.90;;;;;;;2.44;100.00;98671.25;5033916;28;20587;-70
2021/12/20 02:21:33;;;;;;;5.30;4.80;;;;;;;2.42;100.00;98670.50;5034078;28;20215;-69
2021/12/20 02:24:01;;;;;;;7.27;5.97;;;;;;;2.43;100.00;98676.56;5034347;28;20531;-69
2021/12/20 02:26:29;;;;;;;6.67;5.50;;;;;;;2.45;100.00;98666.84;5003525;28;20604;-70
2021/12/20 02:29:03;;;;;;;6.87;5.57;;;;;;;2.39;100.00;98664.63;5038441;28;20433;-71
2021/12/20 02:37:27;;;;;;;7.40;6.00;;;;;;;2.36;100.00;98663.03;5032656;28;20872;-68
2021/12/20 02:39:56;;;;;;;6.73;5.37;;;;;;;2.31;100.00;98663.31;5034504;28;20411;-70
2021/12/20 02:42:29;;;;;;;8.37;6.17;;;;;;;2.25;100.00;98662.84;5011191;28;20523;-72
2021/12/20 02:45:10;;;;;;;7.13;5.93;;;;;;;2.36;100.00;98662.19;5038008;28;20231;-70
2021/12/20 02:47:39;;;;;;;7.37;5.83;;;;;;;2.36;100.00;98665.66;5026241;28;20423;-72
2021/12/20 02:50:08;;;;;;;6.70;5.53;;;;;;;2.29;100.00;98657.34;5036645;28;20204;-71
2021/12/20 02:52:38;;;;;;;6.63;5.03;;;;;;;2.28;100.00;98658.28;5031954;28;20200;-69
2021/12/20 02:55:08;;;;;;;7.27;5.70;;;;;;;2.49;100.00;98644.81;5035617;28;20707;-70
2021/12/20 02:57:36;;;;;;;7.80;5.17;;;;;;;2.37;100.00;98654.25;5006093;28;20788;-69
2021/12/20 03:00:05;;;;;;;6.83;5.77;;;;;;;2.48;100.00;98655.34;5048295;28;20207;-71
2021/12/20 03:02:33;;;;;;;6.63;5.93;;;;;;;2.46;100.00;98661.53;5039007;28;20428;-71
2021/12/20 03:05:02;;;;;;;6.77;5.70;;;;;;;2.31;100.00;98658.09;5042469;28;20231;-68
2021/12/20 03:07:37;;;;;;;7.67;6.30;;;;;;;2.31;100.00;98663.31;5037685;28;20828;-70
2021/12/20 03:10:09;;;;;;;6.37;5.77;;;;;;;2.34;100.00;98658.84;5046300;28;20206;-71
2021/12/20 03:12:37;;;;;;;7.10;5.60;;;;;;;2.34;100.00;98659.69;5005309;28;20887;-71
2021/12/20 03:15:12;;;;;;;7.33;5.13;;;;;;;2.31;100.00;98663.31;5038273;28;20234;-72
2021/12/20 03:17:40;;;;;;;7.63;5.03;;;;;;;2.33;100.00;98665.00;5033464;28;20302;-71
2021/12/20 03:20:09;;;;;;;5.30;4.80;;;;;;;2.26;100.00;98665.38;5043090;28;20214;-73
2021/12/20 03:22:37;;;;;;;6.07;5.47;;;;;;;2.21;100.00;98666.59;5035098;28;20333;-69
2021/12/20 03:25:07;;;;;;;6.53;5.30;;;;;;;2.42;100.00;98667.03;5042447;28;20231;-69
2021/12/20 03:27:35;;;;;;;5.83;5.20;;;;;;;2.28;100.00;98663.50;5036584;28;20206;-69
2021/12/20 03:30:04;;;;;;;6.40;5.27;;;;;;;2.22;100.00;98663.03;5016438;28;20566;-71
2021/12/20 03:32:32;;;;;;;6.87;5.37;;;;;;;2.20;100.00;98663.16;5043012;28;20308;-70
2021/12/20 03:35:00;;;;;;;6.70;5.50;;;;;;;2.19;100.00;98665.84;5029131;28;20249;-70
2021/12/20 03:37:28;;;;;;;6.93;5.47;;;;;;;2.27;100.00;98674.06;5033547;28;20350;-73
2021/12/20 03:39:56;;;;;;;6.27;4.93;;;;;;;2.60;100.00;98668.50;5038683;28;20211;-73
2021/12/20 03:42:27;;;;;;;7.17;4.97;;;;;;;2.64;100.00;98669.13;5026851;28;20896;-70
2021/12/20 03:44:55;;;;;;;5.30;4.80;;;;;;;2.60;100.00;98673.75;5005861;28;20231;-72
2021/12/20 03:47:23;;;;;;;5.93;5.13;;;;;;;2.58;100.00;98678.25;5032488;28;20207;-71
2021/12/20 03:49:51;;;;;;;6.47;5.10;;;;;;;2.58;100.00;98675.63;5034189;28;20211;-69
2021/12/20 03:52:19;;;;;;;6.60;5.17;;;;;;;2.41;100.00;98686.28;5038422;28;20203;-71
2021/12/20 03:54:47;;;;;;;6.67;5.20;;;;;;;2.33;100.00;98683.31;5035552;28;20251;-73
2021/12/20 03:57:16;;;;;;;7.73;4.90;;;;;;;2.25;100.00;98692.47;5029260;28;20599;-71
2021/12/20 03:59:47;;;;;;;6.73;5.27;;;;;;;2.29;100.00;98690.53;5004979;28;20246;-70
2021/12/20 04:02:19;;;;;;;6.37;5.00;;;;;;;2.26;100.00;98691.53;5042048;28;20610;-70
2021/12/20 04:04:47;;;;;;;7.70;5.43;;;;;;;2.27;100.00;98690.59;5022920;28;20231;-72
2021/12/20 04:07:15;;;;;;;5.30;4.80;;;;;;;2.51;100.00;98697.88;5039224;28;20206;-72
2021/12/20 04:09:43;;;;;;;5.20;4.73;;;;;;;2.27;100.00;98697.59;5023302;28;20215;-71
2021/12/20 04:12:12;;;;;;;5.13;4.63;;;;;;;2.43;100.00;98703.56;5035666;28;20311;-70
2021/12/20 04:14:40;;;;;;;5.27;4.30;;;;;;;2.39;100.00;98703.84;5039391;28;20333;-71
2021/12/20 04:17:09;;;;;;;5.10;4.47;;;;;;;2.39;100.00;98698.63;5006050;28;20225;-71
2021/12/20 04:19:37;;;;;;;4.87;4.20;;;;;;;2.24;100.00;98700.41;5036289;28;20850;-72
2021/12/20 04:22:05;;;;;;;6.83;5.67;;;;;;;2.15;100.00;98692.19;5033616;28;20211;-73
2021/12/20 04:24:33;;;;;;;5.40;4.77;;;;;;;2.35;100.00;98700.59;5035337;28;20341;-70
2021/12/20 04:27:02;;;;;;;5.37;4.67;;;;;;;2.29;100.00;98700.97;5034557;28;20266;-73
2021/12/20 04:29:30;;;;;;;10.03;4.97;;;;;;;2.26;100.00;98698.53;5034457;28;20454;-72
2021/12/20 04:31:59;;;;;;;5.43;4.03;;;;;;;2.28;100.00;98694.91;5007121;28;20683;-69
2021/12/20 04:34:28;;;;;;;5.13;4.63;;;;;;;2.19;100.00;98698.09;5037723;28;20254;-71
2021/12/20 04:36:56;;;;;;;6.17;5.27;;;;;;;2.08;100.00;98693.50;5037984;28;20239;-71
2021/12/20 04:39:29;;;;;;;6.50;4.93;;;;;;;2.10;100.00;98698.66;5034096;28;20207;-70
2021/12/20 04:41:57;;;;;;;6.30;4.43;;;;;;;2.09;100.00;98697.78;5036179;28;20218;-71
2021/12/20 04:44:25;;;;;;;6.20;4.83;;;;;;;1.96;100.00;98709.94;5023917;28;20774;-70
2021/12/20 04:46:53;;;;;;;5.37;4.90;;;;;;;1.95;100.00;98714.31;5009329;28;20230;-70
2021/12/20 04:49:24;;;;;;;7.10;4.80;;;;;;;1.97;100.00;98719.47;5032777;28;20212;-72
2021/12/20 04:51:54;;;;;;;5.17;4.67;;;;;;;1.84;100.00;98717.56;5043814;28;20208;-70
2021/12/20 04:54:23;;;;;;;6.73;4.63;;;;;;;1.85;100.00;98710.56;5033939;28;20969;-71
2021/12/20 04:56:50;;;;;;;5.20;4.77;;;;;;;1.81;100.00;98709.06;5036754;28;20235;-72
2021/12/20 04:59:18;;;;;;;5.83;5.23;;;;;;;1.79;100.00;98703.09;5029860;28;20207;-70
2021/12/20 05:01:46;;;;;;;6.23;5.07;;;;;;;1.65;100.00;98706.50;5005251;28;21010;-70
2021/12/20 05:04:14;;;;;;;5.63;5.17;;;;;;;1.73;100.00;98710.38;5035852;28;20235;-70
2021/12/20 05:06:43;;;;;;;5.93;4.70;;;;;;;1.72;100.00;98710.44;5034501;28;20685;-73
2021/12/20 05:09:12;;;;;;;7.47;5.07;;;;;;;1.61;100.00;98711.06;5035943;28;20575;-71
2021/12/20 05:11:47;;;;;;;6.90;5.20;;;;;;;1.57;100.00;98715.66;5037995;28;20208;-71
2021/12/20 05:14:15;;;;;;;6.33;4.83;;;;;;;1.44;100.00;98705.06;5038586;28;20230;-72
2021/12/20 05:16:43;;;;;;;7.53;5.43;;;;;;;1.54;100.00;98707.13;5042799;28;20247;-71
2021/12/20 05:19:11;;;;;;;5.33;4.83;;;;;;;1.43;100.00;98700.78;5006776;28;20576;-71
2021/12/20 05:21:39;;;;;;;7.63;4.73;;;;;;;1.32;100.00;98708.34;5038611;28;20288;-73
2021/12/20 05:24:08;;;;;;;5.73;4.57;;;;;;;1.14;100.00;98707.66;5039388;28;20223;-71
2021/12/20 05:26:37;;;;;;;6.13;4.77;;;;;;;0.98;100.00;98718.13;5039273;28;20419;-71
2021/12/20 05:29:07;;;;;;;5.23;4.67;;;;;;;0.88;100.00;98723.00;5040075;28;20714;-71
2021/12/20 05:31:35;;;;;;;5.47;4.60;;;;;;;0.88;100.00;98729.97;5031182;28;20235;-70
2021/12/20 05:34:05;;;;;;;6.90;5.33;;;;;;;0.78;100.00;98738.31;5011160;28;20375;-71
2021/12/20 05:36:33;;;;;;;7.33;4.93;;;;;;;0.72;100.00;98736.88;5036412;28;20501;-72
2021/12/20 05:39:01;;;;;;;5.40;4.90;;;;;;;0.69;100.00;98737.03;5038987;28;20289;-72
2021/12/20 05:41:30;;;;;;;7.17;4.80;;;;;;;0.64;100.00;98730.41;5032883;28;20407;-73
2021/12/20 05:44:00;;;;;;;7.23;5.20;;;;;;;0.66;100.00;98741.59;5019660;28;20299;-71
2021/12/20 05:46:28;;;;;;;7.47;5.50;;;;;;;0.59;100.00;98743.69;5018434;28;20600;-73
2021/12/20 05:48:56;;;;;;;5.63;4.70;;;;;;;0.39;100.00;98749.97;5010473;28;20658;-72
2021/12/20 05:51:24;;;;;;;5.70;4.80;;;;;;;0.46;100.00;98753.94;5038771;28;20215;-73
2021/12/20 05:53:52;;;;;;;6.73;5.43;;;;;;;0.39;100.00;98756.03;5039577;28;20227;-73
2021/12/20 05:56:20;;;;;;;7.40;5.53;;;;;;;0.36;100.00;98763.16;5035729;28;20672;-71
2021/12/20 05:58:48;;;;;;;6.13;5.43;;;;;;;0.28;100.00;98772.25;5035816;28;20224;-70
2021/12/20 06:01:18;;;;;;;6.03;5.20;;;;;;;0.26;100.00;98783.66;5035117;28;20203;-72
2021/12/20 06:03:46;;;;;;;6.80;5.57;;;;;;;0.15;100.00;98773.78;5000075;28;20465;-71
2021/12/20 06:06:15;;;;;;;5.57;5.03;;;;;;;0.12;100.00;98782.59;5038774;28;20227;-72
2021/12/20 06:08:43;;;;;;;9.77;5.47;;;;;;;0.18;100.00;98775.38;5036778;28;20195;-71
2021/12/20 06:11:11;;;;;;;5.93;4.83;;;;;;;0.22;100.00;98775.16;5035822;28;20207;-71
2021/12/20 06:13:39;;;;;;;6.40;5.13;;;;;;;0.20;100.00;98784.84;5034341;28;20254;-72
2021/12/20 06:16:07;;;;;;;5.90;5.30;;;;;;;0.12;100.00;98786.97;5035763;28;20206;-72
2021/12/20 06:18:36;;;;;;;4.97;4.50;;;;;;;0.01;100.00;98787.53;5037619;28;20569;-72
2021/12/20 06:21:04;;;;;;;9.17;5.63;;;;;;;-0.12;100.00;98784.69;5006041;28;20215;-73
2021/12/20 06:23:32;;;;;;;8.40;5.93;;;;;;;-0.17;100.00;98778.88;5034682;28;20383;-70
2021/12/20 06:26:00;;;;;;;7.87;5.73;;;;;;;-0.20;100.00;98789.41;5032659;28;20214;-72
2021/12/20 06:28:29;;;;;;;7.57;5.57;;;;;;;-0.20;100.00;98787.69;5029912;28;20425;-72
2021/12/20 06:30:57;;;;;;;5.40;4.90;;;;;;;-0.16;100.00;98796.19;5035069;28;20680;-71
2021/12/20 06:33:25;;;;;;;6.80;6.00;;;;;;;-0.12;100.00;98796.88;5027610;28;20719;-71
2021/12/20 06:35:54;;;;;;;6.60;5.70;;;;;;;-0.16;100.00;98797.03;5004591;28;20215;-73
2021/12/20 06:38:22;;;;;;;5.97;5.27;;;;;;;-0.26;100.00;98802.75;5034531;28;20239;-72
2021/12/20 06:40:51;;;;;;;7.37;5.83;;;;;;;-0.26;100.00;98806.22;5033828;28;20207;-72
2021/12/20 06:43:20;;;;;;;8.77;6.17;;;;;;;-0.34;100.00;98821.38;5036468;28;20234;-72
2021/12/20 06:45:48;;;;;;;7.37;6.47;;;;;;;-0.52;100.00;98815.31;5040122;28;20207;-73
2021/12/20 06:48:16;;;;;;;8.03;5.67;;;;;;;-0.53;100.00;98816.22;5033762;28;20579;-72
2021/12/20 06:50:44;;;;;;;6.03;5.43;;;;;;;-0.52;100.00;98812.69;5009935;28;20471;-74
2021/12/20 06:53:14;;;;;;;7.67;6.10;;;;;;;-0.60;100.00;98826.91;5035329;28;20472;-71
2021/12/20 06:55:42;;;;;;;6.47;5.83;;;;;;;-0.68;100.00;98830.81;5033442;28;20207;-72
2021/12/20 06:58:10;;;;;;;8.20;5.67;;;;;;;-0.84;100.00;98823.69;5034623;28;20219;-71
2021/12/20 07:00:38;;;;;;;7.40;5.83;;;;;;;-0.91;100.00;98825.75;5030311;28;20219;-72
2021/12/20 07:03:06;;;;;;;7.87;5.87;;;;;;;-0.92;100.00;98831.03;5029285;28;20548;-74
2021/12/20 07:05:34;;;;;;;6.53;5.90;;;;;;;-1.00;100.00;98828.75;5039388;28;20212;-72
2021/12/20 07:08:03;;;;;;;7.63;6.33;;;;;;;-1.08;100.00;98829.13;4984872;28;20212;-73
2021/12/20 07:10:32;;;;;;;8.17;6.20;;;;;;;-1.13;100.00;98830.25;5035797;28;20207;-74
2021/12/20 07:13:04;;;;;;;7.53;5.43;;;;;;;-1.20;100.00;98829.66;5028101;28;20269;-73
2021/12/20 07:15:33;;;;;;;6.13;5.40;;;;;;;-1.26;100.00;98838.63;5044079;28;20448;-72
2021/12/20 07:18:00;;;;;;;6.57;5.00;;;;;;;-1.31;100.00;98835.38;5037278;28;20227;-71
2021/12/20 07:20:29;;;;;;;6.73;6.03;;;;;;;-1.33;100.00;98831.97;5038888;28;20289;-74
2021/12/20 07:22:57;;;;;;;6.93;5.90;;;;;;;-1.27;100.00;98842.13;4996077;28;20371;-73
2021/12/20 07:25:25;;;;;;;6.50;5.73;;;;;;;-1.13;100.00;98838.06;5036486;28;20203;-71
2021/12/20 07:27:55;;;;;;;8.30;5.77;;;;;;;-1.08;100.00;98841.28;5031588;28;20404;-72
2021/12/20 07:30:22;;;;;;;8.40;6.13;;;;;;;-1.22;100.00;98845.38;5039475;28;20207;-72
2021/12/20 07:32:50;;;;;;;8.93;6.60;;;;;;;-1.20;100.00;98845.28;5035366;28;20297;-72
2021/12/20 07:35:19;;;;;;;7.37;6.63;;;;;;;-1.23;100.00;98848.88;5038323;28;20731;-74
2021/12/20 07:37:48;;;;;;;12.90;7.07;;;;;;;-1.28;100.00;98848.25;5006889;28;20207;-73
2021/12/20 07:40:16;;;;;;;7.50;6.77;;;;;;;-1.17;100.00;98858.16;5033807;28;20449;-72
2021/12/20 07:42:44;;;;;;;13.93;6.57;;;;;;;-0.93;100.00;98853.63;5030450;28;20207;-73
2021/12/20 07:45:13;;;;;;;8.40;5.60;;;;;;;-1.00;100.00;98857.38;5036880;28;20199;-73
2021/12/20 07:47:47;;;;;;;9.07;6.40;;;;;;;-0.92;100.00;98855.31;5037248;28;20568;-72
2021/12/20 07:50:15;;;;;;;7.80;6.60;;;;;;;-0.97;100.00;98859.03;5038273;28;20822;-70
2021/12/20 07:52:43;;;;;;;8.10;6.07;;;;;;;-0.90;100.00;98865.63;5036027;28;20790;-73
2021/12/20 07:55:11;;;;;;;6.30;5.70;;;;;;;-0.96;100.00;98871.94;5005086;28;20989;-74
2021/12/20 07:57:39;;;;;;;7.20;6.47;;;;;;;-1.09;100.00;98853.47;5034505;28;20622;-72
2021/12/20 08:00:11;;;;;;;8.37;5.93;;;;;;;-1.21;100.00;98857.47;5036542;28;20224;-71
2021/12/20 08:02:41;;;;;;;7.27;6.17;;;;;;;-1.28;100.00;98855.19;5034602;28;20211;-73
2021/12/20 08:05:10;;;;;;;6.60;5.90;;;;;;;-1.33;100.00;98860.59;5037689;28;20223;-72
2021/12/20 08:07:38;;;;;;;6.77;5.97;;;;;;;-1.33;100.00;98869.25;5035708;28;20214;-73
2021/12/20 08:10:07;;;;;;;7.77;6.70;;;;;;;-1.31;100.00;98870.00;5005673;28;20952;-74
2021/12/20 08:12:35;;;;;;;11.73;9.73;;;;;;;-1.32;100.00;98868.31;5031190;28;20204;-72
2021/12/20 08:15:03;;;;;;;12.23;10.20;;;;;;;-1.31;100.00;98867.41;5039713;28;20227;-74
2021/12/20 08:17:32;;;;;;;7.53;6.70;;;;;;;-1.29;100.00;98874.31;5041637;28;20450;-73
2021/12/20 08:20:01;;;;;;;9.80;7.30;;;;;;;-1.28;100.00;98882.06;5035902;28;20219;-72
2021/12/20 08:22:29;;;;;;;9.37;7.43;;;;;;;-1.25;100.00;98878.47;5037790;28;20218;-74
2021/12/20 08:24:57;;;;;;;7.20;6.33;;;;;;;-1.21;100.00;98875.66;5003554;28;20430;-72
2021/12/20 08:27:26;;;;;;;8.50;6.37;;;;;;;-1.09;100.00;98881.22;5041160;28;20206;-72
2021/12/20 08:29:53;;;;;;;12.50;7.17;;;;;;;-0.93;100.00;98884.84;5034484;28;20508;-73
2021/12/20 08:32:21;;;;;;;8.67;7.43;;;;;;;-0.80;100.00;98882.50;5036418;28;20548;-72
2021/12/20 08:34:53;;;;;;;9.97;6.33;;;;;;;-0.70;100.00;98888.13;5031598;28;20235;-74
2021/12/20 08:37:23;;;;;;;8.77;7.87;;;;;;;-0.57;100.00;98895.38;5039469;28;20199;-73
2021/12/20 08:39:51;;;;;;;9.20;7.23;;;;;;;-0.52;100.00;98891.66;5037344;28;20977;-71
2021/12/20 08:42:20;;;;;;;18.60;11.97;;;;;;;-0.48;100.00;98887.16;5004968;28;20231;-74
2021/12/20 08:44:48;;;;;;;9.47;8.37;;;;;;;-0.41;100.00;98895.50;5029849;28;20363;-71
2021/12/20 08:47:16;;;;;;;21.43;17.40;;;;;;;-0.35;100.00;98888.25;5037919;28;20371;-73
2021/12/20 08:49:45;;;;;;;23.23;18.10;;;;;;;-0.28;100.00;98885.34;5033329;28;20219;-74
2021/12/20 08:52:14;;;;;;;10.30;7.80;;;;;;;-0.23;100.00;98892.03;5036884;28;20204;-73
2021/12/20 08:54:44;;;;;;;10.13;6.37;;;;;;;-0.09;100.00;98891.38;5035111;28;20715;-72
2021/12/20 08:57:12;;;;;;;6.77;6.03;;;;;;;0.11;100.00;98886.94;5007027;28;20258;-73
2021/12/20 08:59:39;;;;;;;8.40;7.37;;;;;;;0.14;100.00;98886.78;5034508;28;20278;-72
2021/12/20 09:02:09;;;;;;;8.90;6.10;;;;;;;0.20;100.00;98894.31;5034811;28;20230;-72
2021/12/20 09:04:37;;;;;;;13.27;10.53;;;;;;;0.22;100.00;98896.84;5032691;28;20685;-73
2021/12/20 09:07:07;;;;;;;49.80;33.27;;;;;;;0.31;100.00;98903.38;5033260;28;20230;-73
2021/12/20 09:09:38;;;;;;;61.33;49.47;;;;;;;0.26;100.00;98899.22;5036863;28;20207;-73
2021/12/20 09:12:09;;;;;;;37.43;33.53;;;;;;;0.33;100.00;98904.13;5035519;28;20203;-73
2021/12/20 09:14:38;;;;;;;10.27;8.13;;;;;;;0.43;100.00;98900.13;4999409;28;20227;-74
2021/12/20 09:17:06;;;;;;;9.73;6.87;;;;;;;0.46;100.00;98905.19;5038866;28;20207;-71
2021/12/20 09:19:36;;;;;;;6.37;5.77;;;;;;;0.59;100.00;98894.97;5039744;28;20309;-72
2021/12/20 09:22:06;;;;;;;7.10;6.30;;;;;;;0.60;100.00;98912.31;5038953;28;20702;-72
2021/12/20 09:24:34;;;;;;;10.37;5.80;;;;;;;0.57;100.00;98902.91;5038589;28;20228;-73
2021/12/20 09:27:03;;;;;;;7.70;6.70;;;;;;;0.64;100.00;98913.03;5034431;28;20443;-74
2021/12/20 09:29:33;;;;;;;13.20;8.47;;;;;;;0.69;100.00;98916.22;5006231;28;20215;-72
2021/12/20 09:32:02;;;;;;;7.50;6.80;;;;;;;0.72;100.00;98914.28;5030308;28;20947;-72
2021/12/20 09:34:30;;;;;;;10.80;5.73;;;;;;;0.85;100.00;98914.50;5037926;28;20227;-73
2021/12/20 09:37:04;;;;;;;9.23;5.83;;;;;;;0.90;100.00;98918.63;5031553;28;20436;-73
2021/12/20 09:39:33;;;;;;;9.53;5.93;;;;;;;1.04;100.00;98913.56;5039773;28;20234;-73
2021/12/20 09:42:01;;;;;;;10.40;7.63;;;;;;;0.96;100.00;98911.34;5031613;28;20418;-72
2021/12/20 09:44:30;;;;;;;8.30;5.97;;;;;;;1.04;100.00;98910.94;5001901;28;20246;-73
2021/12/20 09:47:01;;;;;;;6.47;5.80;;;;;;;1.03;100.00;98914.47;5033036;28;20280;-74
2021/12/20 09:49:31;;;;;;;8.03;6.47;;;;;;;1.10;100.00;98914.97;5036797;28;20200;-75
2021/12/20 09:51:59;;;;;;;12.97;8.67;;;;;;;1.25;100.00;98910.72;5033986;28;20405;-72
2021/12/20 09:54:29;;;;;;;19.60;17.47;;;;;;;1.27;100.00;98904.50;5032969;28;20312;-72
2021/12/20 09:56:59;;;;;;;14.20;11.90;;;;;;;1.15;100.00;98903.38;5032868;28;20204;-73
2021/12/20 09:59:28;;;;;;;9.90;8.67;;;;;;;1.48;100.00;98904.25;5004452;28;21010;-72
2021/12/20 10:01:57;;;;;;;11.27;8.77;;;;;;;1.41;100.00;98910.72;5031028;28;20432;-73
2021/12/20 10:04:27;;;;;;;8.30;5.70;;;;;;;1.42;100.00;98910.66;5035417;28;20966;-72
2021/12/20 10:07:01;;;;;;;7.50;4.93;;;;;;;1.38;100.00;98909.16;5032379;28;20204;-72
2021/12/20 10:09:33;;;;;;;5.17;4.40;;;;;;;1.41;100.00;98908.97;5036115;28;20360;-72
2021/12/20 10:12:17;;;;;;;5.50;5.00;;;;;;;1.56;100.00;98916.91;5031633;28;20313;-72
2021/12/20 10:15:00;;;;;;;3.93;3.50;;;;;;;1.67;100.00;98911.09;4998243;28;20234;-73
2021/12/20 10:17:31;;;;;;;3.93;3.60;;;;;;;1.56;100.00;98907.31;5037028;28;20199;-73
2021/12/20 10:20:18;;;;;;;3.67;3.10;;;;;;;1.68;100.00;98910.97;5033873;28;20281;-73
2021/12/20 10:22:47;;;;;;;7.90;3.43;;;;;;;1.57;100.00;98910.75;5032295;28;20207;-72
2021/12/20 10:25:28;;;;;;;7.83;4.57;;;;;;;1.61;100.00;98911.44;5035992;28;20671;-72
2021/12/20 10:28:06;;;;;;;11.40;4.37;;;;;;;1.66;100.00;98909.41;5031585;28;20535;-74
2021/12/20 10:30:36;;;;;;;7.77;4.80;;;;;;;1.73;100.00;98910.75;5005353;28;20590;-73
2021/12/20 10:33:05;;;;;;;4.20;3.60;;;;;;;1.53;100.00;98910.09;5030164;28;20293;-73
2021/12/20 10:35:37;;;;;;;3.87;3.60;;;;;;;1.51;100.00;98905.84;5038957;28;20399;-72
2021/12/20 10:38:09;;;;;;;7.07;4.07;;;;;;;1.61;100.00;98906.19;5031854;28;20569;-72
2021/12/20 10:40:48;;;;;;;5.60;3.67;;;;;;;1.52;100.00;98904.94;5035618;28;20227;-72
2021/12/20 10:43:20;;;;;;;7.37;4.17;;;;;;;1.58;100.00;98905.44;5034784;28;20223;-73
2021/12/20 10:45:48;;;;;;;9.33;4.50;;;;;;;1.59;100.00;98908.88;4999189;28;20615;-72
2021/12/20 10:48:36;;;;;;;6.33;4.87;;;;;;;1.57;100.00;98897.69;5034571;28;20257;-76
2021/12/20 10:51:05;;;;;;;8.83;5.03;;;;;;;1.55;100.00;98897.78;5030612;28;20199;-72
2021/12/20 10:53:33;;;;;;;5.27;3.33;;;;;;;1.67;100.00;98893.63;5040416;28;20230;-73
2021/12/20 10:56:04;;;;;;;4.57;4.17;;;;;;;1.64;100.00;98895.56;5030305;28;20200;-72
2021/12/20 10:58:53;;;;;;;14.13;12.73;;;;;;;1.83;100.00;98891.00;4998277;28;20215;-73
2021/12/20 11:01:36;;;;;;;8.93;7.50;;;;;;;1.88;100.00;98902.03;5038589;28;20463;-72
2021/12/20 11:04:06;;;;;;;5.47;4.77;;;;;;;1.87;100.00;98889.88;5031811;28;20949;-72
2021/12/20 11:09:22;;;;;;;9.47;6.80;;;;;;;2.02;100.00;98890.78;5037673;28;20207;-74
2021/12/20 11:11:51;;;;;;;13.37;6.73;;;;;;;2.14;100.00;98888.44;5035828;28;20393;-71
2021/12/20 11:14:20;;;;;;;4.37;3.30;;;;;;;2.30;100.00;98883.97;5039524;28;20247;-73
2021/12/20 11:16:50;;;;;;;4.73;3.40;;;;;;;2.31;100.00;98883.03;5004218;28;20595;-72
2021/12/20 11:19:29;;;;;;;4.90;3.60;;;;;;;2.46;100.00;98883.91;5038988;28;20363;-73
2021/12/20 11:22:14;;;;;;;5.77;2.83;;;;;;;2.68;100.00;98887.03;5037941;28;20223;-72
2021/12/20 11:24:44;;;;;;;3.30;3.00;;;;;;;2.45;100.00;98881.38;5033186;28;20236;-73
2021/12/20 11:27:19;;;;;;;5.40;2.77;;;;;;;2.51;100.00;98874.94;5038754;28;20798;-73
2021/12/20 11:29:49;;;;;;;3.37;3.07;;;;;;;2.64;100.00;98878.50;5003786;28;20208;-73
2021/12/20 11:32:18;;;;;;;3.17;2.90;;;;;;;2.67;100.00;98874.88;5032267;28;20204;-72
2021/12/20 11:34:49;;;;;;;2.60;1.67;;;;;;;2.67;100.00;98878.34;5035169;28;20322;-73
2021/12/20 11:37:22;;;;;;;2.20;2.10;;;;;;;2.88;100.00;98880.59;5037883;28;20207;-73
2021/12/20 11:39:53;;;;;;;1.53;1.43;;;;;;;2.99;100.00;98872.91;5038965;28;20379;-72
2021/12/20 11:42:22;;;;;;;3.97;2.50;;;;;;;2.96;100.00;98874.91;5038263;28;20246;-73
2021/12/20 11:44:56;;;;;;;3.83;3.07;;;;;;;2.95;100.00;98873.22;5001123;28;20737;-71
2021/12/20 11:47:29;;;;;;;4.03;2.80;;;;;;;3.10;100.00;98858.34;5038313;28;20215;-74
2021/12/20 11:49:59;;;;;;;2.27;2.07;;;;;;;3.31;100.00;98862.22;5031558;28;20200;-73
2021/12/20 11:52:33;;;;;;;1.60;1.50;;;;;;;3.58;100.00;98876.28;5038754;28;20215;-73